sensor_id;sensor_type;location;lat;lon;timestamp;P1;durP1;ratioP1;P2;durP2;ratioP2
58918;SDS011;44704;50.122;19.932;2022-10-30T00:02:22;36.40;;;22.60;;
58918;SDS011;44704;50.122;19.932;2022-10-30T00:04:48;32.70;;;22.40;;
58918;SDS011;44704;50.122;19.932;2022-10-30T00:07:14;36.10;;;22.50;;
58918;SDS011;44704;50.122;19.932;2022-10-30T00:09:40;38.00;;;23.40;;
58918;SDS011;44704;50.122;19.932;2022-10-30T00:12:07;35.70;;;23.40;;
58918;SDS011;44704;50.122;19.932;2022-10-30T00:17:18;42.70;;;25.70;;
58918;SDS011;44704;50.122;19.932;2022-10-30T00:19:44;39.20;;;22.70;;
58918;SDS011;44704;50.122;19.932;2022-10-30T00:22:10;32.90;;;21.20;;
58918;SDS011;44704;50.122;19.932;2022-10-30T00:24:36;33.60;;;21.70;;
58918;SDS011;44704;50.122;19.932;2022-10-30T00:27:03;33.50;;;22.10;;
58918;SDS011;44704;50.122;19.932;2022-10-30T00:29:29;32.50;;;20.80;;
58918;SDS011;44704;50.122;19.932;2022-10-30T00:31:55;32.00;;;21.20;;
58918;SDS011;44704;50.122;19.932;2022-10-30T00:34:22;32.50;;;22.10;;
58918;SDS011;44704;50.122;19.932;2022-10-30T00:36:48;31.00;;;21.80;;
58918;SDS011;44704;50.122;19.932;2022-10-30T00:39:15;35.50;;;22.20;;
58918;SDS011;44704;50.122;19.932;2022-10-30T00:41:44;32.00;;;21.20;;
58918;SDS011;44704;50.122;19.932;2022-10-30T00:47:12;34.40;;;21.70;;
58918;SDS011;44704;50.122;19.932;2022-10-30T00:52:15;32.00;;;20.80;;
58918;SDS011;44704;50.122;19.932;2022-10-30T00:54:46;32.90;;;21.20;;
58918;SDS011;44704;50.122;19.932;2022-10-30T00:57:13;36.00;;;21.50;;
58918;SDS011;44704;50.122;19.932;2022-10-30T00:59:41;31.90;;;21.20;;
58918;SDS011;44704;50.122;19.932;2022-10-30T01:02:07;32.30;;;21.80;;
58918;SDS011;44704;50.122;19.932;2022-10-30T01:04:34;31.60;;;21.10;;
58918;SDS011;44704;50.122;19.932;2022-10-30T01:07:07;30.90;;;21.10;;
58918;SDS011;44704;50.122;19.932;2022-10-30T01:09:54;28.80;;;19.60;;
58918;SDS011;44704;50.122;19.932;2022-10-30T01:12:25;33.20;;;20.90;;
58918;SDS011;44704;50.122;19.932;2022-10-30T01:14:58;30.00;;;20.90;;
58918;SDS011;44704;50.122;19.932;2022-10-30T01:26:31;30.00;;;20.10;;
58918;SDS011;44704;50.122;19.932;2022-10-30T01:29:33;31.10;;;21.00;;
58918;SDS011;44704;50.122;19.932;2022-10-30T01:32:18;32.30;;;21.50;;
58918;SDS011;44704;50.122;19.932;2022-10-30T01:40:51;35.80;;;21.00;;
58918;SDS011;44704;50.122;19.932;2022-10-30T01:43:17;30.70;;;21.00;;
58918;SDS011;44704;50.122;19.932;2022-10-30T01:48:46;29.00;;;18.90;;
58918;SDS011;44704;50.122;19.932;2022-10-30T01:59:35;26.00;;;18.80;;
58918;SDS011;44704;50.122;19.932;2022-10-30T02:02:04;30.60;;;19.20;;
58918;SDS011;44704;50.122;19.932;2022-10-30T02:04:31;30.50;;;20.00;;
58918;SDS011;44704;50.122;19.932;2022-10-30T02:07:02;26.10;;;19.00;;
58918;SDS011;44704;50.122;19.932;2022-10-30T02:09:31;30.20;;;21.70;;
58918;SDS011;44704;50.122;19.932;2022-10-30T02:11:57;25.90;;;18.40;;
58918;SDS011;44704;50.122;19.932;2022-10-30T02:14:28;26.20;;;18.00;;
58918;SDS011;44704;50.122;19.932;2022-10-30T02:17:03;28.30;;;20.00;;
58918;SDS011;44704;50.122;19.932;2022-10-30T02:19:31;30.80;;;20.70;;
58918;SDS011;44704;50.122;19.932;2022-10-30T02:21:58;30.40;;;20.10;;
58918;SDS011;44704;50.122;19.932;2022-10-30T02:24:26;30.80;;;21.40;;
58918;SDS011;44704;50.122;19.932;2022-10-30T02:26:53;34.50;;;22.00;;
58918;SDS011;44704;50.122;19.932;2022-10-30T02:29:20;33.40;;;21.50;;
58918;SDS011;44704;50.122;19.932;2022-10-30T02:31:47;31.80;;;20.80;;
58918;SDS011;44704;50.122;19.932;2022-10-30T02:34:14;35.10;;;21.10;;
58918;SDS011;44704;50.122;19.932;2022-10-30T02:36:44;33.60;;;20.70;;
58918;SDS011;44704;50.122;19.932;2022-10-30T02:39:11;32.00;;;21.70;;
58918;SDS011;44704;50.122;19.932;2022-10-30T02:41:38;31.20;;;22.30;;
58918;SDS011;44704;50.122;19.932;2022-10-30T02:44:06;32.10;;;20.80;;
58918;SDS011;44704;50.122;19.932;2022-10-30T02:46:33;35.80;;;22.10;;
58918;SDS011;44704;50.122;19.932;2022-10-30T02:48:59;31.90;;;20.70;;
58918;SDS011;44704;50.122;19.932;2022-10-30T02:51:26;34.60;;;23.20;;
58918;SDS011;44704;50.122;19.932;2022-10-30T02:53:53;33.60;;;22.50;;
58918;SDS011;44704;50.122;19.932;2022-10-30T02:56:21;37.30;;;24.30;;
58918;SDS011;44704;50.122;19.932;2022-10-30T02:58:47;37.80;;;23.80;;
58918;SDS011;44704;50.122;19.932;2022-10-30T03:01:14;37.30;;;24.10;;
58918;SDS011;44704;50.122;19.932;2022-10-30T03:03:43;35.30;;;23.80;;
58918;SDS011;44704;50.122;19.932;2022-10-30T03:06:11;30.90;;;25.10;;
58918;SDS011;44704;50.122;19.932;2022-10-30T03:08:42;32.50;;;23.30;;
58918;SDS011;44704;50.122;19.932;2022-10-30T03:11:14;36.60;;;24.30;;
58918;SDS011;44704;50.122;19.932;2022-10-30T03:13:41;35.90;;;23.30;;
58918;SDS011;44704;50.122;19.932;2022-10-30T03:16:10;32.30;;;22.30;;
58918;SDS011;44704;50.122;19.932;2022-10-30T03:18:41;31.80;;;22.00;;
58918;SDS011;44704;50.122;19.932;2022-10-30T03:21:10;33.40;;;22.80;;
58918;SDS011;44704;50.122;19.932;2022-10-30T03:23:43;33.00;;;22.30;;
58918;SDS011;44704;50.122;19.932;2022-10-30T03:26:14;33.40;;;22.00;;
58918;SDS011;44704;50.122;19.932;2022-10-30T03:28:51;33.60;;;22.60;;
58918;SDS011;44704;50.122;19.932;2022-10-30T03:31:20;33.80;;;22.30;;
58918;SDS011;44704;50.122;19.932;2022-10-30T03:33:50;32.10;;;22.30;;
58918;SDS011;44704;50.122;19.932;2022-10-30T03:36:17;30.40;;;22.60;;
58918;SDS011;44704;50.122;19.932;2022-10-30T03:38:43;30.30;;;21.60;;
58918;SDS011;44704;50.122;19.932;2022-10-30T03:43:39;34.50;;;23.30;;
58918;SDS011;44704;50.122;19.932;2022-10-30T03:46:05;31.60;;;22.50;;
58918;SDS011;44704;50.122;19.932;2022-10-30T03:48:32;36.30;;;25.40;;
58918;SDS011;44704;50.122;19.932;2022-10-30T03:50:58;34.60;;;25.30;;
58918;SDS011;44704;50.122;19.932;2022-10-30T03:53:25;33.20;;;23.50;;
58918;SDS011;44704;50.122;19.932;2022-10-30T03:55:56;34.40;;;23.70;;
58918;SDS011;44704;50.122;19.932;2022-10-30T03:58:25;36.90;;;25.10;;
58918;SDS011;44704;50.122;19.932;2022-10-30T04:00:51;38.00;;;25.00;;
58918;SDS011;44704;50.122;19.932;2022-10-30T04:03:18;36.40;;;24.60;;
58918;SDS011;44704;50.122;19.932;2022-10-30T04:05:44;37.00;;;26.00;;
58918;SDS011;44704;50.122;19.932;2022-10-30T04:08:13;37.70;;;24.90;;
58918;SDS011;44704;50.122;19.932;2022-10-30T04:10:44;33.90;;;25.00;;
58918;SDS011;44704;50.122;19.932;2022-10-30T04:13:12;32.80;;;23.40;;
58918;SDS011;44704;50.122;19.932;2022-10-30T04:15:47;29.90;;;20.70;;
58918;SDS011;44704;50.122;19.932;2022-10-30T04:18:18;32.50;;;22.20;;
58918;SDS011;44704;50.122;19.932;2022-10-30T04:20:46;33.80;;;23.00;;
58918;SDS011;44704;50.122;19.932;2022-10-30T04:23:15;29.70;;;21.60;;
58918;SDS011;44704;50.122;19.932;2022-10-30T04:26:01;26.90;;;20.00;;
58918;SDS011;44704;50.122;19.932;2022-10-30T04:28:27;31.40;;;22.30;;
58918;SDS011;44704;50.122;19.932;2022-10-30T04:30:56;36.10;;;21.90;;
58918;SDS011;44704;50.122;19.932;2022-10-30T04:33:24;31.90;;;22.80;;
58918;SDS011;44704;50.122;19.932;2022-10-30T04:35:50;34.20;;;22.50;;
58918;SDS011;44704;50.122;19.932;2022-10-30T04:38:19;35.40;;;24.50;;
58918;SDS011;44704;50.122;19.932;2022-10-30T04:40:45;36.30;;;23.40;;
58918;SDS011;44704;50.122;19.932;2022-10-30T04:43:15;35.40;;;24.60;;
58918;SDS011;44704;50.122;19.932;2022-10-30T04:45:44;35.50;;;24.00;;
58918;SDS011;44704;50.122;19.932;2022-10-30T04:48:12;37.80;;;25.40;;
58918;SDS011;44704;50.122;19.932;2022-10-30T04:51:05;39.80;;;24.40;;
58918;SDS011;44704;50.122;19.932;2022-10-30T04:53:32;38.00;;;24.60;;
58918;SDS011;44704;50.122;19.932;2022-10-30T04:56:06;36.80;;;24.80;;
58918;SDS011;44704;50.122;19.932;2022-10-30T04:59:06;39.30;;;24.80;;
58918;SDS011;44704;50.122;19.932;2022-10-30T05:01:47;36.80;;;25.70;;
58918;SDS011;44704;50.122;19.932;2022-10-30T05:04:13;35.20;;;25.20;;
58918;SDS011;44704;50.122;19.932;2022-10-30T05:06:40;39.10;;;25.70;;
58918;SDS011;44704;50.122;19.932;2022-10-30T05:09:06;40.10;;;26.10;;
58918;SDS011;44704;50.122;19.932;2022-10-30T05:11:42;37.60;;;25.30;;
58918;SDS011;44704;50.122;19.932;2022-10-30T05:14:10;38.80;;;26.40;;
58918;SDS011;44704;50.122;19.932;2022-10-30T05:16:36;42.00;;;27.30;;
58918;SDS011;44704;50.122;19.932;2022-10-30T05:19:03;37.00;;;25.30;;
58918;SDS011;44704;50.122;19.932;2022-10-30T05:21:31;37.90;;;25.40;;
58918;SDS011;44704;50.122;19.932;2022-10-30T05:23:58;34.60;;;24.20;;
58918;SDS011;44704;50.122;19.932;2022-10-30T05:26:25;38.40;;;25.50;;
58918;SDS011;44704;50.122;19.932;2022-10-30T05:28:52;36.00;;;24.40;;
58918;SDS011;44704;50.122;19.932;2022-10-30T05:31:21;40.80;;;25.60;;
58918;SDS011;44704;50.122;19.932;2022-10-30T05:34:11;35.80;;;23.80;;
58918;SDS011;44704;50.122;19.932;2022-10-30T05:36:38;39.10;;;24.30;;
58918;SDS011;44704;50.122;19.932;2022-10-30T05:39:04;37.00;;;24.60;;
58918;SDS011;44704;50.122;19.932;2022-10-30T05:41:34;36.60;;;21.70;;
58918;SDS011;44704;50.122;19.932;2022-10-30T05:44:00;36.00;;;23.70;;
58918;SDS011;44704;50.122;19.932;2022-10-30T05:46:26;37.10;;;23.60;;
58918;SDS011;44704;50.122;19.932;2022-10-30T05:48:53;34.50;;;23.50;;
58918;SDS011;44704;50.122;19.932;2022-10-30T05:51:20;36.40;;;24.00;;
58918;SDS011;44704;50.122;19.932;2022-10-30T05:53:51;33.70;;;22.20;;
58918;SDS011;44704;50.122;19.932;2022-10-30T05:56:18;33.70;;;21.90;;
58918;SDS011;44704;50.122;19.932;2022-10-30T05:58:47;31.80;;;20.10;;
58918;SDS011;44704;50.122;19.932;2022-10-30T06:01:14;31.60;;;20.90;;
58918;SDS011;44704;50.122;19.932;2022-10-30T06:03:43;33.40;;;22.00;;
58918;SDS011;44704;50.122;19.932;2022-10-30T06:06:11;39.70;;;23.00;;
58918;SDS011;44704;50.122;19.932;2022-10-30T06:08:37;31.80;;;20.20;;
58918;SDS011;44704;50.122;19.932;2022-10-30T06:11:24;35.30;;;22.50;;
58918;SDS011;44704;50.122;19.932;2022-10-30T06:13:53;38.80;;;22.80;;
58918;SDS011;44704;50.122;19.932;2022-10-30T06:16:29;35.80;;;21.50;;
58918;SDS011;44704;50.122;19.932;2022-10-30T06:19:17;37.20;;;21.80;;
58918;SDS011;44704;50.122;19.932;2022-10-30T06:21:44;35.00;;;21.90;;
58918;SDS011;44704;50.122;19.932;2022-10-30T06:24:13;36.00;;;21.30;;
58918;SDS011;44704;50.122;19.932;2022-10-30T06:31:06;35.50;;;20.60;;
58918;SDS011;44704;50.122;19.932;2022-10-30T06:33:33;32.10;;;20.10;;
58918;SDS011;44704;50.122;19.932;2022-10-30T06:36:00;34.60;;;20.90;;
58918;SDS011;44704;50.122;19.932;2022-10-30T06:38:31;38.40;;;22.60;;
58918;SDS011;44704;50.122;19.932;2022-10-30T06:41:02;34.40;;;20.90;;
58918;SDS011;44704;50.122;19.932;2022-10-30T06:43:49;35.80;;;20.90;;
58918;SDS011;44704;50.122;19.932;2022-10-30T06:46:24;34.50;;;21.00;;
58918;SDS011;44704;50.122;19.932;2022-10-30T06:48:51;37.40;;;21.80;;
58918;SDS011;44704;50.122;19.932;2022-10-30T06:51:17;37.70;;;22.90;;
58918;SDS011;44704;50.122;19.932;2022-10-30T06:53:45;36.70;;;21.70;;
58918;SDS011;44704;50.122;19.932;2022-10-30T06:56:29;34.70;;;21.70;;
58918;SDS011;44704;50.122;19.932;2022-10-30T06:59:14;40.70;;;21.80;;
58918;SDS011;44704;50.122;19.932;2022-10-30T07:02:09;32.50;;;20.20;;
58918;SDS011;44704;50.122;19.932;2022-10-30T07:04:44;36.60;;;21.10;;
58918;SDS011;44704;50.122;19.932;2022-10-30T07:07:11;34.30;;;20.60;;
58918;SDS011;44704;50.122;19.932;2022-10-30T07:09:38;29.20;;;17.60;;
58918;SDS011;44704;50.122;19.932;2022-10-30T07:12:05;33.50;;;19.50;;
58918;SDS011;44704;50.122;19.932;2022-10-30T07:15:08;30.30;;;19.10;;
58918;SDS011;44704;50.122;19.932;2022-10-30T07:17:40;33.10;;;20.10;;
58918;SDS011;44704;50.122;19.932;2022-10-30T07:20:14;30.50;;;18.70;;
58918;SDS011;44704;50.122;19.932;2022-10-30T07:22:40;32.50;;;18.80;;
58918;SDS011;44704;50.122;19.932;2022-10-30T07:25:07;29.90;;;18.10;;
58918;SDS011;44704;50.122;19.932;2022-10-30T07:27:52;27.50;;;16.80;;
58918;SDS011;44704;50.122;19.932;2022-10-30T07:30:39;29.10;;;17.80;;
58918;SDS011;44704;50.122;19.932;2022-10-30T07:33:19;28.10;;;16.70;;
58918;SDS011;44704;50.122;19.932;2022-10-30T07:35:54;27.30;;;17.10;;
58918;SDS011;44704;50.122;19.932;2022-10-30T07:38:34;26.50;;;16.60;;
58918;SDS011;44704;50.122;19.932;2022-10-30T07:41:13;26.60;;;16.30;;
58918;SDS011;44704;50.122;19.932;2022-10-30T07:43:46;25.80;;;16.70;;
58918;SDS011;44704;50.122;19.932;2022-10-30T07:46:31;27.30;;;16.60;;
58918;SDS011;44704;50.122;19.932;2022-10-30T07:49:16;27.40;;;16.30;;
58918;SDS011;44704;50.122;19.932;2022-10-30T07:51:48;26.40;;;15.70;;
58918;SDS011;44704;50.122;19.932;2022-10-30T07:54:15;26.30;;;15.20;;
58918;SDS011;44704;50.122;19.932;2022-10-30T07:56:41;18.60;;;13.40;;
58918;SDS011;44704;50.122;19.932;2022-10-30T07:59:26;26.90;;;16.00;;
58918;SDS011;44704;50.122;19.932;2022-10-30T08:01:59;27.50;;;15.40;;
58918;SDS011;44704;50.122;19.932;2022-10-30T08:04:40;26.70;;;15.40;;
58918;SDS011;44704;50.122;19.932;2022-10-30T08:07:29;23.20;;;14.10;;
58918;SDS011;44704;50.122;19.932;2022-10-30T08:09:59;25.40;;;15.20;;
58918;SDS011;44704;50.122;19.932;2022-10-30T08:12:25;19.00;;;13.30;;
58918;SDS011;44704;50.122;19.932;2022-10-30T08:14:52;21.00;;;13.50;;
58918;SDS011;44704;50.122;19.932;2022-10-30T08:17:19;21.60;;;13.70;;
58918;SDS011;44704;50.122;19.932;2022-10-30T08:19:46;21.40;;;12.60;;
58918;SDS011;44704;50.122;19.932;2022-10-30T08:22:12;20.50;;;12.50;;
58918;SDS011;44704;50.122;19.932;2022-10-30T08:24:39;19.80;;;13.30;;
58918;SDS011;44704;50.122;19.932;2022-10-30T08:27:06;22.70;;;13.40;;
58918;SDS011;44704;50.122;19.932;2022-10-30T08:29:32;21.90;;;13.30;;
58918;SDS011;44704;50.122;19.932;2022-10-30T08:32:02;20.80;;;14.00;;
58918;SDS011;44704;50.122;19.932;2022-10-30T08:34:52;21.20;;;13.60;;
58918;SDS011;44704;50.122;19.932;2022-10-30T08:37:20;21.10;;;14.70;;
58918;SDS011;44704;50.122;19.932;2022-10-30T08:39:46;21.40;;;14.30;;
58918;SDS011;44704;50.122;19.932;2022-10-30T08:42:27;21.90;;;14.50;;
58918;SDS011;44704;50.122;19.932;2022-10-30T08:44:56;20.60;;;13.80;;
58918;SDS011;44704;50.122;19.932;2022-10-30T08:47:43;20.30;;;13.60;;
58918;SDS011;44704;50.122;19.932;2022-10-30T08:50:10;17.50;;;13.60;;
58918;SDS011;44704;50.122;19.932;2022-10-30T08:52:37;19.00;;;13.60;;
58918;SDS011;44704;50.122;19.932;2022-10-30T08:55:13;18.70;;;14.30;;
58918;SDS011;44704;50.122;19.932;2022-10-30T08:57:40;23.60;;;13.70;;
58918;SDS011;44704;50.122;19.932;2022-10-30T09:00:11;17.90;;;13.00;;
58918;SDS011;44704;50.122;19.932;2022-10-30T09:03:02;21.60;;;14.10;;
58918;SDS011;44704;50.122;19.932;2022-10-30T09:05:47;19.90;;;13.80;;
58918;SDS011;44704;50.122;19.932;2022-10-30T09:08:16;19.40;;;13.90;;
58918;SDS011;44704;50.122;19.932;2022-10-30T09:11:05;18.80;;;12.70;;
58918;SDS011;44704;50.122;19.932;2022-10-30T09:13:35;20.80;;;14.30;;
58918;SDS011;44704;50.122;19.932;2022-10-30T09:16:05;21.10;;;14.40;;
58918;SDS011;44704;50.122;19.932;2022-10-30T09:21:01;19.20;;;13.90;;
58918;SDS011;44704;50.122;19.932;2022-10-30T09:23:31;22.70;;;14.50;;
58918;SDS011;44704;50.122;19.932;2022-10-30T09:26:27;18.90;;;13.40;;
58918;SDS011;44704;50.122;19.932;2022-10-30T09:29:24;23.10;;;16.10;;
58918;SDS011;44704;50.122;19.932;2022-10-30T09:31:58;24.60;;;14.70;;
58918;SDS011;44704;50.122;19.932;2022-10-30T09:34:28;21.40;;;14.30;;
58918;SDS011;44704;50.122;19.932;2022-10-30T09:37:34;21.60;;;13.10;;
58918;SDS011;44704;50.122;19.932;2022-10-30T09:40:22;22.80;;;14.10;;
58918;SDS011;44704;50.122;19.932;2022-10-30T10:00:18;20.60;;;12.50;;
58918;SDS011;44704;50.122;19.932;2022-10-30T10:06:45;20.00;;;11.80;;
58918;SDS011;44704;50.122;19.932;2022-10-30T10:09:44;19.70;;;11.60;;
58918;SDS011;44704;50.122;19.932;2022-10-30T10:12:37;18.80;;;11.70;;
58918;SDS011;44704;50.122;19.932;2022-10-30T10:15:19;17.40;;;10.90;;
58918;SDS011;44704;50.122;19.932;2022-10-30T10:18:31;21.20;;;11.00;;
58918;SDS011;44704;50.122;19.932;2022-10-30T10:21:24;15.40;;;10.00;;
58918;SDS011;44704;50.122;19.932;2022-10-30T10:23:56;19.20;;;11.00;;
58918;SDS011;44704;50.122;19.932;2022-10-30T10:36:02;16.10;;;10.80;;
58918;SDS011;44704;50.122;19.932;2022-10-30T10:44:42;17.20;;;9.60;;
58918;SDS011;44704;50.122;19.932;2022-10-30T10:50:50;18.90;;;9.40;;
58918;SDS011;44704;50.122;19.932;2022-10-30T10:53:29;15.20;;;9.40;;
58918;SDS011;44704;50.122;19.932;2022-10-30T10:56:30;16.50;;;9.00;;
58918;SDS011;44704;50.122;19.932;2022-10-30T11:02:33;12.90;;;8.40;;
58918;SDS011;44704;50.122;19.932;2022-10-30T11:04:59;14.40;;;9.00;;
58918;SDS011;44704;50.122;19.932;2022-10-30T11:07:52;13.00;;;7.60;;
58918;SDS011;44704;50.122;19.932;2022-10-30T11:10:22;14.70;;;7.70;;
58918;SDS011;44704;50.122;19.932;2022-10-30T11:12:50;13.30;;;6.80;;
58918;SDS011;44704;50.122;19.932;2022-10-30T11:18:05;15.80;;;7.20;;
58918;SDS011;44704;50.122;19.932;2022-10-30T11:20:39;13.70;;;7.20;;
58918;SDS011;44704;50.122;19.932;2022-10-30T11:25:58;15.50;;;8.30;;
58918;SDS011;44704;50.122;19.932;2022-10-30T11:29:11;12.90;;;6.80;;
58918;SDS011;44704;50.122;19.932;2022-10-30T11:31:40;12.50;;;7.20;;
58918;SDS011;44704;50.122;19.932;2022-10-30T11:34:19;13.10;;;6.80;;
58918;SDS011;44704;50.122;19.932;2022-10-30T11:36:51;11.70;;;6.80;;
58918;SDS011;44704;50.122;19.932;2022-10-30T11:39:19;12.50;;;7.60;;
58918;SDS011;44704;50.122;19.932;2022-10-30T11:44:22;13.80;;;6.60;;
58918;SDS011;44704;50.122;19.932;2022-10-30T11:46:52;9.80;;;6.30;;
58918;SDS011;44704;50.122;19.932;2022-10-30T11:52:18;10.50;;;6.00;;
58918;SDS011;44704;50.122;19.932;2022-10-30T11:54:49;11.30;;;6.30;;
58918;SDS011;44704;50.122;19.932;2022-10-30T12:00:16;10.70;;;6.10;;
58918;SDS011;44704;50.122;19.932;2022-10-30T12:02:44;10.50;;;6.30;;
58918;SDS011;44704;50.122;19.932;2022-10-30T12:07:50;12.60;;;6.30;;
58918;SDS011;44704;50.122;19.932;2022-10-30T12:10:24;11.90;;;5.70;;
58918;SDS011;44704;50.122;19.932;2022-10-30T12:12:52;14.60;;;6.10;;
58918;SDS011;44704;50.122;19.932;2022-10-30T12:15:19;11.10;;;5.80;;
58918;SDS011;44704;50.122;19.932;2022-10-30T12:17:59;13.90;;;5.70;;
58918;SDS011;44704;50.122;19.932;2022-10-30T12:20:26;10.80;;;5.80;;
58918;SDS011;44704;50.122;19.932;2022-10-30T12:22:53;12.40;;;5.70;;
58918;SDS011;44704;50.122;19.932;2022-10-30T12:25:29;10.90;;;6.10;;
58918;SDS011;44704;50.122;19.932;2022-10-30T12:27:57;13.40;;;5.80;;
58918;SDS011;44704;50.122;19.932;2022-10-30T12:30:25;14.00;;;5.60;;
58918;SDS011;44704;50.122;19.932;2022-10-30T12:32:56;12.20;;;5.90;;
58918;SDS011;44704;50.122;19.932;2022-10-30T12:38:00;10.80;;;6.20;;
58918;SDS011;44704;50.122;19.932;2022-10-30T12:40:30;15.70;;;5.90;;
58918;SDS011;44704;50.122;19.932;2022-10-30T12:43:09;11.30;;;6.40;;
58918;SDS011;44704;50.122;19.932;2022-10-30T12:45:43;12.50;;;6.10;;
58918;SDS011;44704;50.122;19.932;2022-10-30T12:48:29;15.60;;;5.70;;
58918;SDS011;44704;50.122;19.932;2022-10-30T12:54:23;11.70;;;5.70;;
58918;SDS011;44704;50.122;19.932;2022-10-30T12:57:19;11.80;;;5.00;;
58918;SDS011;44704;50.122;19.932;2022-10-30T13:08:19;10.40;;;5.60;;
58918;SDS011;44704;50.122;19.932;2022-10-30T13:16:26;7.50;;;4.50;;
58918;SDS011;44704;50.122;19.932;2022-10-30T13:18:55;11.70;;;5.30;;
58918;SDS011;44704;50.122;19.932;2022-10-30T13:24:01;14.50;;;6.20;;
58918;SDS011;44704;50.122;19.932;2022-10-30T13:26:38;9.90;;;5.60;;
58918;SDS011;44704;50.122;19.932;2022-10-30T13:29:16;10.20;;;5.40;;
58918;SDS011;44704;50.122;19.932;2022-10-30T13:34:26;10.10;;;5.40;;
58918;SDS011;44704;50.122;19.932;2022-10-30T13:51:37;8.40;;;5.00;;
58918;SDS011;44704;50.122;19.932;2022-10-30T13:56:57;10.50;;;4.90;;
58918;SDS011;44704;50.122;19.932;2022-10-30T13:59:43;14.50;;;5.40;;
58918;SDS011;44704;50.122;19.932;2022-10-30T14:07:29;10.30;;;4.40;;
58918;SDS011;44704;50.122;19.932;2022-10-30T14:12:51;11.10;;;5.50;;
58918;SDS011;44704;50.122;19.932;2022-10-30T14:18:20;14.90;;;4.70;;
58918;SDS011;44704;50.122;19.932;2022-10-30T14:21:28;13.50;;;5.90;;
58918;SDS011;44704;50.122;19.932;2022-10-30T14:24:16;12.50;;;4.70;;
58918;SDS011;44704;50.122;19.932;2022-10-30T14:26:47;13.20;;;4.50;;
58918;SDS011;44704;50.122;19.932;2022-10-30T14:34:41;13.00;;;4.80;;
58918;SDS011;44704;50.122;19.932;2022-10-30T14:39:48;10.30;;;5.00;;
58918;SDS011;44704;50.122;19.932;2022-10-30T14:53:09;13.10;;;5.80;;
58918;SDS011;44704;50.122;19.932;2022-10-30T14:58:34;9.40;;;5.10;;
58918;SDS011;44704;50.122;19.932;2022-10-30T15:03:34;12.10;;;5.00;;
58918;SDS011;44704;50.122;19.932;2022-10-30T15:06:22;15.80;;;6.00;;
58918;SDS011;44704;50.122;19.932;2022-10-30T15:16:39;33.20;;;15.60;;
58918;SDS011;44704;50.122;19.932;2022-10-30T15:19:06;16.70;;;8.80;;
58918;SDS011;44704;50.122;19.932;2022-10-30T15:21:40;13.10;;;6.70;;
58918;SDS011;44704;50.122;19.932;2022-10-30T15:24:15;15.80;;;8.00;;
58918;SDS011;44704;50.122;19.932;2022-10-30T15:26:52;26.70;;;15.40;;
58918;SDS011;44704;50.122;19.932;2022-10-30T15:29:31;22.80;;;11.70;;
58918;SDS011;44704;50.122;19.932;2022-10-30T15:32:19;15.10;;;9.00;;
58918;SDS011;44704;50.122;19.932;2022-10-30T15:34:57;13.40;;;7.40;;
58918;SDS011;44704;50.122;19.932;2022-10-30T15:37:29;17.90;;;8.20;;
58918;SDS011;44704;50.122;19.932;2022-10-30T15:40:38;14.90;;;7.20;;
58918;SDS011;44704;50.122;19.932;2022-10-30T15:42:46;15.50;;;6.90;;
58918;SDS011;44704;50.122;19.932;2022-10-30T15:45:18;15.10;;;6.50;;
58918;SDS011;44704;50.122;19.932;2022-10-30T15:47:56;14.60;;;6.30;;
58918;SDS011;44704;50.122;19.932;2022-10-30T15:50:26;12.50;;;5.70;;
58918;SDS011;44704;50.122;19.932;2022-10-30T15:52:54;11.30;;;6.20;;
58918;SDS011;44704;50.122;19.932;2022-10-30T15:55:26;16.10;;;7.40;;
58918;SDS011;44704;50.122;19.932;2022-10-30T15:58:02;15.70;;;7.00;;
58918;SDS011;44704;50.122;19.932;2022-10-30T16:00:30;15.60;;;7.40;;
58918;SDS011;44704;50.122;19.932;2022-10-30T16:03:00;14.50;;;7.90;;
58918;SDS011;44704;50.122;19.932;2022-10-30T16:07:56;16.30;;;9.00;;
58918;SDS011;44704;50.122;19.932;2022-10-30T16:12:53;14.70;;;8.10;;
58918;SDS011;44704;50.122;19.932;2022-10-30T16:15:28;19.20;;;8.30;;
58918;SDS011;44704;50.122;19.932;2022-10-30T16:18:14;14.70;;;7.20;;
58918;SDS011;44704;50.122;19.932;2022-10-30T16:20:49;19.90;;;8.30;;
58918;SDS011;44704;50.122;19.932;2022-10-30T16:23:34;15.30;;;7.60;;
58918;SDS011;44704;50.122;19.932;2022-10-30T16:26:26;13.30;;;7.30;;
58918;SDS011;44704;50.122;19.932;2022-10-30T16:31:49;12.10;;;6.50;;
58918;SDS011;44704;50.122;19.932;2022-10-30T16:34:21;11.70;;;7.10;;
58918;SDS011;44704;50.122;19.932;2022-10-30T16:37:02;14.40;;;7.60;;
58918;SDS011;44704;50.122;19.932;2022-10-30T16:39:32;14.20;;;7.10;;
58918;SDS011;44704;50.122;19.932;2022-10-30T16:42:02;12.00;;;6.80;;
58918;SDS011;44704;50.122;19.932;2022-10-30T16:44:32;14.20;;;7.70;;
58918;SDS011;44704;50.122;19.932;2022-10-30T16:47:05;15.90;;;7.70;;
58918;SDS011;44704;50.122;19.932;2022-10-30T16:49:49;12.30;;;7.40;;
58918;SDS011;44704;50.122;19.932;2022-10-30T16:52:20;15.20;;;7.30;;
58918;SDS011;44704;50.122;19.932;2022-10-30T16:55:00;13.50;;;7.00;;
58918;SDS011;44704;50.122;19.932;2022-10-30T16:57:43;15.20;;;7.80;;
58918;SDS011;44704;50.122;19.932;2022-10-30T17:00:25;16.60;;;7.60;;
58918;SDS011;44704;50.122;19.932;2022-10-30T17:02:53;15.80;;;8.10;;
58918;SDS011;44704;50.122;19.932;2022-10-30T17:05:25;20.80;;;8.10;;
58918;SDS011;44704;50.122;19.932;2022-10-30T17:16:43;15.70;;;7.60;;
58918;SDS011;44704;50.122;19.932;2022-10-30T17:21:58;15.70;;;8.70;;
58918;SDS011;44704;50.122;19.932;2022-10-30T17:24:45;22.40;;;9.80;;
58918;SDS011;44704;50.122;19.932;2022-10-30T17:27:37;12.90;;;8.00;;
58918;SDS011;44704;50.122;19.932;2022-10-30T17:33:23;20.70;;;8.50;;
58918;SDS011;44704;50.122;19.932;2022-10-30T17:36:05;18.40;;;9.30;;
58918;SDS011;44704;50.122;19.932;2022-10-30T17:38:36;16.10;;;8.80;;
58918;SDS011;44704;50.122;19.932;2022-10-30T17:41:05;14.60;;;8.50;;
58918;SDS011;44704;50.122;19.932;2022-10-30T17:43:46;17.50;;;8.50;;
58918;SDS011;44704;50.122;19.932;2022-10-30T17:46:18;18.40;;;9.10;;
58918;SDS011;44704;50.122;19.932;2022-10-30T17:48:46;16.70;;;9.50;;
58918;SDS011;44704;50.122;19.932;2022-10-30T17:51:15;18.50;;;10.20;;
58918;SDS011;44704;50.122;19.932;2022-10-30T17:53:46;14.20;;;8.70;;
58918;SDS011;44704;50.122;19.932;2022-10-30T17:56:16;15.50;;;8.50;;
58918;SDS011;44704;50.122;19.932;2022-10-30T17:58:59;17.80;;;8.70;;
58918;SDS011;44704;50.122;19.932;2022-10-30T18:01:25;13.60;;;8.60;;
58918;SDS011;44704;50.122;19.932;2022-10-30T18:03:52;19.20;;;9.10;;
58918;SDS011;44704;50.122;19.932;2022-10-30T18:06:21;14.50;;;8.80;;
58918;SDS011;44704;50.122;19.932;2022-10-30T18:08:48;14.70;;;8.70;;
58918;SDS011;44704;50.122;19.932;2022-10-30T18:11:15;16.30;;;9.20;;
58918;SDS011;44704;50.122;19.932;2022-10-30T18:13:47;14.90;;;8.70;;
58918;SDS011;44704;50.122;19.932;2022-10-30T18:16:16;18.60;;;9.90;;
58918;SDS011;44704;50.122;19.932;2022-10-30T18:18:43;19.50;;;11.10;;
58918;SDS011;44704;50.122;19.932;2022-10-30T18:21:10;19.30;;;11.90;;